createdAt,value
2022-09-01T00:00:06.277Z,10.19
2022-09-01T00:02:34.244Z,10.09
2022-09-01T00:05:04.692Z,10.06
2022-09-01T00:07:31.527Z,10.03
2022-09-01T00:10:02.182Z,10.03
2022-09-01T00:12:29.450Z,9.99
2022-09-01T00:14:56.431Z,9.98
2022-09-01T00:17:23.109Z,9.97
2022-09-01T00:19:49.774Z,9.96
2022-09-01T00:22:16.636Z,9.94
2022-09-01T00:24:43.322Z,9.91
2022-09-01T00:27:09.986Z,10.02
2022-09-01T00:29:36.792Z,9.98
2022-09-01T00:32:04.170Z,9.94
2022-09-01T00:34:30.969Z,9.91
2022-09-01T00:36:57.577Z,9.90
2022-09-01T00:39:24.350Z,9.90
2022-09-01T00:41:51.714Z,9.90
2022-09-01T00:44:24.347Z,9.88
2022-09-01T00:46:55.984Z,9.82
2022-09-01T00:49:34.964Z,9.81
2022-09-01T00:52:09.197Z,9.78
2022-09-01T00:54:40.067Z,9.76
2022-09-01T00:57:09.134Z,9.72
2022-09-01T00:59:36.719Z,9.63
2022-09-01T01:02:03.379Z,9.62
2022-09-01T01:04:31.524Z,9.52
2022-09-01T01:07:01.617Z,9.50
2022-09-01T01:09:31.766Z,9.44
2022-09-01T01:12:00.222Z,9.38
2022-09-01T01:14:29.709Z,9.36
2022-09-01T01:16:56.386Z,9.35
2022-09-01T01:19:46.246Z,9.28
2022-09-01T01:22:53.639Z,9.21
2022-09-01T01:25:22.419Z,9.15
2022-09-01T01:27:49.056Z,9.14
2022-09-01T01:30:19.086Z,9.19
2022-09-01T01:32:47.595Z,9.18
2022-09-01T01:35:16.584Z,9.05
2022-09-01T01:37:45.860Z,9.08
2022-09-01T01:40:15.865Z,9.04
2022-09-01T01:42:48.352Z,8.93
2022-09-01T01:45:18.002Z,9.01
2022-09-01T01:47:53.134Z,8.99
2022-09-01T01:50:33.534Z,8.91
2022-09-01T01:53:03.016Z,8.76
2022-09-01T01:55:37.954Z,8.72
2022-09-01T01:58:05.221Z,8.73
2022-09-01T02:00:34.629Z,8.80
2022-09-01T02:03:01.398Z,8.70
2022-09-01T02:05:33.208Z,8.81
2022-09-01T02:08:05.800Z,8.69
2022-09-01T02:10:35.865Z,8.56
2022-09-01T02:13:07.095Z,8.64
2022-09-01T02:15:42.626Z,8.61
2022-09-01T02:18:20.161Z,8.56
2022-09-01T02:20:49.422Z,8.58
2022-09-01T02:23:23.286Z,8.64
2022-09-01T02:26:15.263Z,8.54
2022-09-01T02:28:42.613Z,8.43
2022-09-01T02:31:11.301Z,8.48
2022-09-01T02:33:39.130Z,8.48
2022-09-01T02:36:10.057Z,8.44
2022-09-01T02:38:36.955Z,8.42
2022-09-01T02:41:06.062Z,8.37
2022-09-01T02:43:33.819Z,8.43
2022-09-01T02:46:02.665Z,8.40
2022-09-01T02:48:32.966Z,8.32
2022-09-01T02:51:02.110Z,8.37
2022-09-01T02:53:30.830Z,8.32
2022-09-01T02:55:59.539Z,8.27
2022-09-01T02:58:27.151Z,8.25
2022-09-01T03:00:56.627Z,8.14
2022-09-01T03:03:24.281Z,8.13
2022-09-01T03:05:56.239Z,8.13
2022-09-01T03:08:24.534Z,8.08
2022-09-01T03:10:53.860Z,8.04
2022-09-01T03:13:23.861Z,7.95
2022-09-01T03:15:51.014Z,7.97
2022-09-01T03:18:18.890Z,7.99
2022-09-01T03:20:46.654Z,8.01
2022-09-01T03:23:19.215Z,7.98
2022-09-01T03:25:48.030Z,7.96
2022-09-01T03:28:15.299Z,7.87
2022-09-01T03:30:51.105Z,7.80
2022-09-01T03:33:19.764Z,7.85
2022-09-01T03:35:47.983Z,7.82
2022-09-01T03:38:21.021Z,7.75
2022-09-01T03:40:49.419Z,7.77
2022-09-01T03:43:16.993Z,7.79
2022-09-01T03:45:43.847Z,7.77
2022-09-01T03:48:10.602Z,7.78
2022-09-01T03:50:41.066Z,7.72
2022-09-01T03:53:08.280Z,7.63
2022-09-01T03:55:37.530Z,7.66
2022-09-01T03:58:10.187Z,7.75
2022-09-01T04:00:40.109Z,7.79
2022-09-01T04:03:08.991Z,7.73
2022-09-01T04:05:37.713Z,7.74
2022-09-01T04:08:07.412Z,7.68
2022-09-01T04:10:35.734Z,7.70
2022-09-01T04:13:02.831Z,7.60
2022-09-01T04:15:30.195Z,7.53
2022-09-01T04:18:20.313Z,7.49
2022-09-01T04:20:56.859Z,7.52
2022-09-01T04:23:33.523Z,7.51
2022-09-01T04:26:13.192Z,7.48
2022-09-01T04:28:45.561Z,7.42
2022-09-01T04:31:20.466Z,7.47
2022-09-01T04:33:52.861Z,7.49
2022-09-01T04:36:31.771Z,7.42
2022-09-01T04:39:00.990Z,7.39
2022-09-01T04:41:32.087Z,7.43
2022-09-01T04:44:04.917Z,7.54
2022-09-01T04:46:35.643Z,7.59
2022-09-01T04:49:08.120Z,7.51
2022-09-01T04:51:41.684Z,7.52
2022-09-01T04:54:14.265Z,7.57
2022-09-01T04:56:46.252Z,7.56
2022-09-01T04:59:13.736Z,7.48
2022-09-01T05:01:45.121Z,7.55
2022-09-01T05:04:33.941Z,7.68
2022-09-01T05:07:01.756Z,7.54
2022-09-01T05:09:31.052Z,7.55
2022-09-01T05:11:58.229Z,7.55
2022-09-01T05:14:25.667Z,7.49
2022-09-01T05:16:58.834Z,7.57
2022-09-01T05:19:28.951Z,7.68
2022-09-01T05:21:57.890Z,7.61
2022-09-01T05:24:30.489Z,7.61
2022-09-01T05:27:00.105Z,7.66
2022-09-01T05:29:27.733Z,7.67
2022-09-01T05:31:58.723Z,7.74
2022-09-01T05:34:30.839Z,7.74
2022-09-01T05:36:59.524Z,7.76
2022-09-01T05:39:27.395Z,7.85
2022-09-01T05:41:54.049Z,7.82
2022-09-01T05:44:24.648Z,7.85
2022-09-01T05:46:51.381Z,7.92
2022-09-01T05:49:18.830Z,8.03
2022-09-01T05:51:50.432Z,8.05
2022-09-01T05:54:27.442Z,8.08
2022-09-01T05:57:02.167Z,8.15
2022-09-01T05:59:35.480Z,8.22
2022-09-01T06:02:02.848Z,8.35
2022-09-01T06:04:30.315Z,8.42
2022-09-01T06:07:05.688Z,8.45
2022-09-01T06:09:39.385Z,8.49
2022-09-01T06:12:06.846Z,8.59
2022-09-01T06:14:34.740Z,8.93
2022-09-01T06:17:03.171Z,9.03
2022-09-01T06:19:33.598Z,9.10
2022-09-01T06:22:03.002Z,9.41
2022-09-01T06:24:30.002Z,10.41
2022-09-01T06:26:56.618Z,12.01
2022-09-01T06:29:23.270Z,13.71
2022-09-01T06:31:52.735Z,14.92
2022-09-01T06:34:19.948Z,16.27
2022-09-01T06:36:48.560Z,17.08
2022-09-01T06:39:22.230Z,18.33
2022-09-01T06:41:52.839Z,19.16
2022-09-01T06:44:23.113Z,19.81
2022-09-01T06:46:51.648Z,19.96
2022-09-01T06:49:21.482Z,20.10
2022-09-01T06:51:51.739Z,20.79
2022-09-01T06:54:21.087Z,21.02
2022-09-01T06:56:51.849Z,20.92
2022-09-01T06:59:20.859Z,21.24
2022-09-01T07:01:49.186Z,21.47
2022-09-01T07:04:20.191Z,21.54
2022-09-01T07:07:00.354Z,21.88
2022-09-01T07:09:47.112Z,21.88
2022-09-01T07:12:27.715Z,21.92
2022-09-01T07:17:57.046Z,21.81
2022-09-01T07:20:27.725Z,21.67
2022-09-01T07:23:04.453Z,21.47
2022-09-01T07:26:00.380Z,21.69
2022-09-01T07:28:25.489Z,21.56
2022-09-01T07:30:53.218Z,21.31
2022-09-01T07:36:26.836Z,20.28
2022-09-01T07:44:28.689Z,19.82
2022-09-01T07:52:29.272Z,19.53
2022-09-01T07:54:56.081Z,19.47
2022-09-01T07:57:22.966Z,19.18
2022-09-01T07:59:51.775Z,19.11
2022-09-01T08:02:18.547Z,19.15
2022-09-01T08:04:46.076Z,19.14
2022-09-01T08:07:16.177Z,19.12
2022-09-01T08:09:44.137Z,18.75
2022-09-01T08:12:11.184Z,18.84
2022-09-01T08:14:37.825Z,18.85
2022-09-01T08:19:53.517Z,18.67
2022-09-01T08:22:25.269Z,18.78
2022-09-01T08:24:52.841Z,18.91
2022-09-01T08:27:19.946Z,18.84
2022-09-01T08:29:46.589Z,18.85
2022-09-01T08:32:13.264Z,19.05
2022-09-01T08:34:40.002Z,18.99
2022-09-01T08:37:06.927Z,19.11
2022-09-01T08:39:33.570Z,19.27
2022-09-01T08:42:12.192Z,19.44
2022-09-01T08:44:46.054Z,19.38
2022-09-01T08:47:15.571Z,19.49
2022-09-01T08:49:46.097Z,19.14
2022-09-01T08:52:26.907Z,18.92
2022-09-01T08:55:10.307Z,18.62
2022-09-01T08:57:39.583Z,18.66
2022-09-01T09:00:13.683Z,18.81
2022-09-01T09:03:02.163Z,19.12
2022-09-01T09:05:49.114Z,19.65
2022-09-01T09:08:53.194Z,20.29
2022-09-01T09:11:27.430Z,20.95
2022-09-01T09:14:00.042Z,20.86
2022-09-01T09:16:37.880Z,21.31
2022-09-01T09:19:28.414Z,21.70
2022-09-01T09:21:57.075Z,21.93
2022-09-01T09:24:50.105Z,22.04
2022-09-01T09:27:38.434Z,22.17
2022-09-01T09:30:27.037Z,21.74
2022-09-01T09:35:46.650Z,21.14
2022-09-01T09:38:21.490Z,20.83
2022-09-01T09:41:19.858Z,20.74
2022-09-01T09:44:01.086Z,20.68
2022-09-01T09:46:27.750Z,20.72
2022-09-01T09:49:21.677Z,20.38
2022-09-01T09:52:08.734Z,20.40
2022-09-01T09:54:37.500Z,20.33
2022-09-01T09:57:09.207Z,20.47
2022-09-01T10:00:00.881Z,20.43
2022-09-01T10:02:35.447Z,20.58
2022-09-01T10:05:17.617Z,20.67
2022-09-01T10:07:44.827Z,20.62
2022-09-01T10:10:56.505Z,20.55
2022-09-01T10:13:26.945Z,20.48
2022-09-01T10:15:56.801Z,20.58
2022-09-01T10:18:41.394Z,20.44
2022-09-01T10:21:34.911Z,20.36
2022-09-01T10:24:27.074Z,20.33
2022-09-01T10:26:57.367Z,20.39
2022-09-01T10:30:12.078Z,20.38
2022-09-01T10:33:10.981Z,20.31
2022-09-01T10:35:48.488Z,20.45
2022-09-01T10:38:20.067Z,20.41
2022-09-01T10:40:50.897Z,20.14
2022-09-01T10:43:26.009Z,20.29
2022-09-01T10:45:57.928Z,20.28
2022-09-01T10:48:36.525Z,19.83
2022-09-01T10:51:18.233Z,20.14
2022-09-01T10:53:51.278Z,20.13
2022-09-01T10:56:35.463Z,20.34
2022-09-01T10:59:41.906Z,20.41
2022-09-01T11:02:26.411Z,20.31
2022-09-01T11:04:54.944Z,20.41
2022-09-01T11:07:31.607Z,20.21
2022-09-01T11:10:32.746Z,20.50
2022-09-01T11:13:29.128Z,20.67
2022-09-01T11:16:00.350Z,20.89
2022-09-01T11:18:30.743Z,20.85
2022-09-01T11:21:15.452Z,21.09
2022-09-01T11:23:42.679Z,21.21
2022-09-01T11:26:46.224Z,21.20
2022-09-01T11:29:51.414Z,21.21
2022-09-01T11:32:21.498Z,21.19
2022-09-01T11:34:49.960Z,21.14
2022-09-01T11:37:18.849Z,21.21
2022-09-01T11:39:51.505Z,21.41
2022-09-01T11:42:19.576Z,21.20
2022-09-01T11:45:00.905Z,21.22
2022-09-01T11:47:32.809Z,20.98
2022-09-01T11:50:02.572Z,21.01
2022-09-01T11:52:32.323Z,20.93
2022-09-01T11:54:59.836Z,21.06
2022-09-01T11:57:37.326Z,21.06
2022-09-01T12:00:09.271Z,21.08
2022-09-01T12:02:42.573Z,21.06
2022-09-01T12:05:29.293Z,20.65
2022-09-01T12:07:56.669Z,21.03
2022-09-01T12:10:35.651Z,21.20
2022-09-01T12:13:08.247Z,21.21
2022-09-01T12:15:36.612Z,21.16
2022-09-01T12:18:31.098Z,21.25
2022-09-01T12:20:59.850Z,21.31
2022-09-01T12:23:28.047Z,21.35
2022-09-01T12:25:56.613Z,21.50
2022-09-01T12:28:31.005Z,21.53
2022-09-01T12:31:07.742Z,21.47
2022-09-01T12:33:35.174Z,21.67
2022-09-01T12:36:24.174Z,21.73
2022-09-01T12:38:52.822Z,21.73
2022-09-01T12:41:36.625Z,22.06
2022-09-01T12:44:32.520Z,22.19
2022-09-01T12:47:02.496Z,22.37
2022-09-01T12:49:50.581Z,22.53
2022-09-01T12:52:19.998Z,22.62
2022-09-01T12:54:52.324Z,22.68
2022-09-01T12:57:30.826Z,22.64
2022-09-01T13:00:11.463Z,22.35
2022-09-01T13:02:40.713Z,22.28
2022-09-01T13:05:41.707Z,22.31
2022-09-01T13:08:14.368Z,22.70
2022-09-01T13:10:49.329Z,22.72
2022-09-01T13:13:16.877Z,22.95
2022-09-01T13:15:48.219Z,23.06
2022-09-01T13:18:16.512Z,22.78
2022-09-01T13:20:43.527Z,22.91
2022-09-01T13:23:12.578Z,22.38
2022-09-01T13:25:44.443Z,22.43
2022-09-01T13:28:11.516Z,22.27
2022-09-01T13:33:21.239Z,21.29
2022-09-01T13:35:50.396Z,21.10
2022-09-01T13:38:18.081Z,20.89
2022-09-01T13:40:47.185Z,20.67
2022-09-01T13:43:15.707Z,20.44
2022-09-01T13:45:45.200Z,20.38
2022-09-01T13:48:16.244Z,20.11
2022-09-01T13:53:32.752Z,20.15
2022-09-01T13:55:59.581Z,19.96
2022-09-01T13:58:26.383Z,20.05
2022-09-01T14:00:54.091Z,20.10
2022-09-01T14:03:23.387Z,20.08
2022-09-01T14:05:50.211Z,20.00
2022-09-01T14:08:19.698Z,20.03
2022-09-01T14:10:51.030Z,19.90
2022-09-01T14:13:20.279Z,19.89
2022-09-01T14:15:48.371Z,19.82
2022-09-01T14:18:16.267Z,19.88
2022-09-01T14:20:45.940Z,19.88
2022-09-01T14:23:13.875Z,19.94
2022-09-01T14:25:46.595Z,19.84
2022-09-01T14:28:13.700Z,19.59
2022-09-01T14:30:43.501Z,19.57
2022-09-01T14:33:11.130Z,19.73
2022-09-01T14:35:40.241Z,19.82
2022-09-01T14:38:08.613Z,19.77
2022-09-01T14:40:38.242Z,19.85
2022-09-01T14:43:06.970Z,19.82
2022-09-01T14:45:33.751Z,19.77
2022-09-01T14:48:01.092Z,19.89
2022-09-01T14:50:35.026Z,19.93
2022-09-01T14:53:02.488Z,19.99
2022-09-01T14:55:30.654Z,19.97
2022-09-01T14:57:57.816Z,19.96
2022-09-01T15:00:27.499Z,19.96
2022-09-01T15:02:55.548Z,19.96
2022-09-01T15:05:23.251Z,20.07
2022-09-01T15:07:50.869Z,20.06
2022-09-01T15:10:24.796Z,20.13
2022-09-01T15:12:54.360Z,20.00
2022-09-01T15:15:21.171Z,20.00
2022-09-01T15:17:47.897Z,20.05
2022-09-01T15:20:33.124Z,19.83
2022-09-01T15:23:01.504Z,19.72
2022-09-01T15:25:28.319Z,19.75
2022-09-01T15:27:54.951Z,19.72
2022-09-01T15:30:21.965Z,19.81
2022-09-01T15:32:51.245Z,19.87
2022-09-01T15:35:19.164Z,19.87
2022-09-01T15:37:47.664Z,20.07
2022-09-01T15:40:14.454Z,20.11
2022-09-01T15:42:41.277Z,20.08
2022-09-01T15:45:11.434Z,20.11
2022-09-01T15:47:40.370Z,20.12
2022-09-01T15:50:17.348Z,20.13
2022-09-01T15:52:52.974Z,20.10
2022-09-01T15:55:43.346Z,20.11
2022-09-01T15:58:11.370Z,19.85
2022-09-01T16:00:38.632Z,19.98
2022-09-01T16:03:06.142Z,19.94
2022-09-01T16:05:35.148Z,20.00
2022-09-01T16:08:03.100Z,19.81
2022-09-01T16:10:32.453Z,19.67
2022-09-01T16:13:01.964Z,19.66
2022-09-01T16:15:28.594Z,19.33
2022-09-01T16:18:13.613Z,19.38
2022-09-01T16:20:55.655Z,19.34
2022-09-01T16:23:25.343Z,19.45
2022-09-01T16:25:53.694Z,19.36
2022-09-01T16:28:47.569Z,19.24
2022-09-01T16:31:21.184Z,19.26
2022-09-01T16:33:51.399Z,19.10
2022-09-01T16:36:40.062Z,19.12
2022-09-01T16:39:10.528Z,19.05
2022-09-01T16:41:44.625Z,18.76
2022-09-01T16:44:19.941Z,18.70
2022-09-01T16:46:57.576Z,18.78
2022-09-01T16:49:33.210Z,18.87
2022-09-01T16:52:25.421Z,18.81
2022-09-01T16:55:13.163Z,18.64
2022-09-01T16:58:10.133Z,18.57
2022-09-01T17:01:17.218Z,18.57
2022-09-01T17:03:54.217Z,18.51
2022-09-01T17:06:34.051Z,18.41
2022-09-01T17:09:10.976Z,18.45
2022-09-01T17:11:49.518Z,18.21
2022-09-01T17:14:27.794Z,18.21
2022-09-01T17:17:04.317Z,18.04
2022-09-01T17:19:31.385Z,18.06
2022-09-01T17:22:07.523Z,18.09
2022-09-01T17:24:49.509Z,18.08
2022-09-01T17:27:32.004Z,17.94
2022-09-01T17:29:59.856Z,17.67
2022-09-01T17:32:43.164Z,17.72
2022-09-01T17:35:30.432Z,17.59
2022-09-01T17:38:03.726Z,17.43
2022-09-01T17:41:12.519Z,17.26
2022-09-01T17:44:00.225Z,17.39
2022-09-01T17:47:12.656Z,17.09
2022-09-01T17:50:04.408Z,17.03
2022-09-01T17:52:59.013Z,16.89
2022-09-01T17:55:32.586Z,16.65
2022-09-01T17:58:09.588Z,16.63
2022-09-01T18:00:47.597Z,16.45
2022-09-01T18:03:36.131Z,16.29
2022-09-01T18:06:09.013Z,16.03
2022-09-01T18:08:48.914Z,15.97
2022-09-01T18:11:23.909Z,15.74
2022-09-01T18:14:04.087Z,15.69
2022-09-01T18:16:47.157Z,15.56
2022-09-01T18:19:21.210Z,15.42
2022-09-01T18:21:49.614Z,15.34
2022-09-01T18:24:20.794Z,15.27
2022-09-01T18:26:50.281Z,15.21
2022-09-01T18:29:17.410Z,15.10
2022-09-01T18:31:50.185Z,15.03
2022-09-01T18:34:47.746Z,14.85
2022-09-01T18:37:36.386Z,14.68
2022-09-01T18:40:19.654Z,14.54
2022-09-01T18:43:05.086Z,14.45
2022-09-01T18:45:35.683Z,14.43
2022-09-01T18:48:24.044Z,14.36
2022-09-01T18:50:59.167Z,14.27
2022-09-01T18:53:37.738Z,14.26
2022-09-01T18:56:20.315Z,14.18
2022-09-01T18:58:56.896Z,14.11
2022-09-01T19:01:32.223Z,14.06
2022-09-01T19:04:22.643Z,14.04
2022-09-01T19:07:19.415Z,13.88
2022-09-01T19:10:18.571Z,13.70
2022-09-01T19:13:01.422Z,13.65
2022-09-01T19:15:33.532Z,13.62
2022-09-01T19:18:13.942Z,13.59
2022-09-01T19:20:55.434Z,13.41
2022-09-01T19:23:26.359Z,13.28
2022-09-01T19:25:59.448Z,13.30
2022-09-01T19:28:47.890Z,13.22
2022-09-01T19:31:27.265Z,13.26
2022-09-01T19:34:03.491Z,13.15
2022-09-01T19:36:39.295Z,13.11
2022-09-01T19:39:08.715Z,12.98
2022-09-01T19:41:39.593Z,12.91
2022-09-01T19:44:37.299Z,12.82
2022-09-01T19:47:11.129Z,12.77
2022-09-01T19:49:49.509Z,12.76
2022-09-01T19:52:43.457Z,12.62
2022-09-01T19:55:13.071Z,12.51
2022-09-01T19:57:45.547Z,12.50
2022-09-01T20:00:50.799Z,12.42
2022-09-01T20:03:36.301Z,12.30
2022-09-01T20:06:12.485Z,12.33
2022-09-01T20:08:55.484Z,12.17
2022-09-01T20:11:40.676Z,12.00
2022-09-01T20:14:38.722Z,12.05
2022-09-01T20:17:07.741Z,12.04
2022-09-01T20:19:53.708Z,12.06
2022-09-01T20:22:39.496Z,12.08
2022-09-01T20:25:12.978Z,12.01
2022-09-01T20:27:47.537Z,12.07
2022-09-01T20:30:19.934Z,12.04
2022-09-01T20:33:05.502Z,11.97
2022-09-01T20:35:40.697Z,11.80
2022-09-01T20:38:42.053Z,11.73
2022-09-01T20:41:21.186Z,11.70
2022-09-01T20:43:53.136Z,11.65
2022-09-01T20:46:24.247Z,11.73
2022-09-01T20:48:53.942Z,11.72
2022-09-01T20:51:41.588Z,11.66
2022-09-01T20:54:27.857Z,11.53
2022-09-01T20:57:18.763Z,11.44
2022-09-01T20:59:50.165Z,11.28
2022-09-01T21:02:38.447Z,11.19
2022-09-01T21:05:23.106Z,11.22
2022-09-01T21:08:00.170Z,11.15
2022-09-01T21:10:40.094Z,11.14
2022-09-01T21:13:13.603Z,11.04
2022-09-01T21:15:50.504Z,11.13
2022-09-01T21:18:46.705Z,11.15
2022-09-01T21:21:36.160Z,11.06
2022-09-01T21:24:04.275Z,10.96
2022-09-01T21:26:31.557Z,10.99
2022-09-01T21:28:59.148Z,11.07
2022-09-01T21:31:25.827Z,11.05
2022-09-01T21:33:52.493Z,11.09
2022-09-01T21:36:19.202Z,11.00
2022-09-01T21:38:45.854Z,10.99
2022-09-01T21:41:13.362Z,10.99
2022-09-01T21:43:42.030Z,10.93
2022-09-01T21:46:09.997Z,10.92
2022-09-01T21:48:36.872Z,10.84
2022-09-01T21:51:06.478Z,10.78
2022-09-01T21:53:33.310Z,10.76
2022-09-01T21:56:02.751Z,10.60
2022-09-01T21:58:31.720Z,10.54
2022-09-01T22:00:58.686Z,10.45
2022-09-01T22:03:25.559Z,10.45
2022-09-01T22:05:52.436Z,10.37
2022-09-01T22:08:19.459Z,10.36
2022-09-01T22:10:51.521Z,10.37
2022-09-01T22:13:23.207Z,10.29
2022-09-01T22:15:52.292Z,10.25
2022-09-01T22:18:20.475Z,10.18
2022-09-01T22:20:47.335Z,10.20
2022-09-01T22:23:15.207Z,10.22
2022-09-01T22:25:46.040Z,10.17
2022-09-01T22:28:12.879Z,10.11
2022-09-01T22:30:47.077Z,10.10
2022-09-01T22:33:16.305Z,10.08
2022-09-01T22:35:45.050Z,10.03
2022-09-01T22:38:12.573Z,9.97
2022-09-01T22:40:47.864Z,9.91
2022-09-01T22:43:18.518Z,9.84
2022-09-01T22:45:46.820Z,9.82
2022-09-01T22:48:14.667Z,9.79
2022-09-01T22:50:42.706Z,9.88
2022-09-01T22:53:10.274Z,9.95
2022-09-01T22:55:38.830Z,10.03
2022-09-01T22:58:06.921Z,9.95
2022-09-01T23:00:34.811Z,9.93
2022-09-01T23:03:01.634Z,9.88
2022-09-01T23:05:29.470Z,9.82
2022-09-01T23:07:58.458Z,9.70
2022-09-01T23:10:28.170Z,9.59
2022-09-01T23:12:54.907Z,9.55
2022-09-01T23:15:21.565Z,9.53
2022-09-01T23:17:48.216Z,9.60
2022-09-01T23:20:15.468Z,9.56
2022-09-01T23:22:43.611Z,9.54
2022-09-01T23:25:12.971Z,9.62
2022-09-01T23:27:40.215Z,9.53
2022-09-01T23:30:11.165Z,9.42
2022-09-01T23:32:38.029Z,9.34
2022-09-01T23:35:04.889Z,9.33
2022-09-01T23:37:31.669Z,9.36
2022-09-01T23:39:58.584Z,9.31
2022-09-01T23:42:25.392Z,9.36
2022-09-01T23:44:52.031Z,9.37
2022-09-01T23:47:18.691Z,9.40
2022-09-01T23:49:46.797Z,9.30
2022-09-01T23:52:13.763Z,9.31
2022-09-01T23:54:40.370Z,9.29
2022-09-01T23:57:07.116Z,9.21
2022-09-01T23:59:33.730Z,9.16
